createdAt,value
2023-07-07T00:01:14.860Z,2.90
2023-07-07T00:03:41.071Z,2.92
2023-07-07T00:06:07.258Z,2.65
2023-07-07T00:08:33.493Z,2.45
2023-07-07T00:11:00.262Z,2.78
2023-07-07T00:13:26.760Z,3.00
2023-07-07T00:15:53.003Z,3.05
2023-07-07T00:18:19.178Z,2.67
2023-07-07T00:20:45.390Z,2.97
2023-07-07T00:23:11.929Z,2.78
2023-07-07T00:25:38.154Z,3.53
2023-07-07T00:28:04.384Z,2.70
2023-07-07T00:30:30.706Z,2.95
2023-07-07T00:32:56.999Z,2.83
2023-07-07T00:35:23.246Z,2.72
2023-07-07T00:37:49.442Z,2.90
2023-07-07T00:40:16.668Z,2.58
2023-07-07T00:42:42.960Z,2.50
2023-07-07T00:45:09.162Z,2.47
2023-07-07T00:47:35.644Z,2.90
2023-07-07T00:50:01.887Z,2.80
2023-07-07T00:52:28.062Z,3.10
2023-07-07T00:54:54.244Z,2.50
2023-07-07T00:57:20.446Z,2.65
2023-07-07T00:59:46.694Z,2.78
2023-07-07T01:02:12.956Z,2.80
2023-07-07T01:04:39.340Z,2.97
2023-07-07T01:07:05.612Z,2.88
2023-07-07T01:09:31.831Z,3.20
2023-07-07T01:11:58.041Z,3.25
2023-07-07T01:14:24.262Z,2.63
2023-07-07T01:16:50.590Z,3.35
2023-07-07T01:19:16.874Z,3.35
2023-07-07T01:21:43.051Z,3.05
2023-07-07T01:24:09.269Z,2.97
2023-07-07T01:26:35.502Z,3.20
2023-07-07T01:29:01.687Z,2.92
2023-07-07T01:31:27.962Z,3.13
2023-07-07T01:33:54.267Z,2.83
2023-07-07T01:36:20.574Z,3.38
2023-07-07T01:38:46.772Z,2.78
2023-07-07T01:41:13.001Z,3.55
2023-07-07T01:43:39.236Z,3.00
2023-07-07T01:46:05.502Z,3.35
2023-07-07T01:48:31.715Z,3.05
2023-07-07T01:50:58.183Z,2.72
2023-07-07T01:53:24.596Z,2.70
2023-07-07T01:55:50.812Z,3.65
2023-07-07T01:58:17.024Z,2.85
2023-07-07T02:00:43.373Z,3.22
2023-07-07T02:03:09.649Z,3.50
2023-07-07T02:05:36.045Z,3.13
2023-07-07T02:08:02.216Z,3.58
2023-07-07T02:10:28.491Z,3.38
2023-07-07T02:12:54.744Z,3.50
2023-07-07T02:15:20.989Z,3.53
2023-07-07T02:17:47.233Z,3.50
2023-07-07T02:20:13.436Z,3.67
2023-07-07T02:22:39.673Z,3.28
2023-07-07T02:25:05.912Z,3.13
2023-07-07T02:27:32.156Z,2.67
2023-07-07T02:29:58.393Z,2.97
2023-07-07T02:32:24.637Z,2.85
2023-07-07T02:34:50.915Z,2.80
2023-07-07T02:37:17.122Z,2.85
2023-07-07T02:39:43.344Z,3.03
2023-07-07T02:42:09.540Z,3.10
2023-07-07T02:44:35.732Z,3.03
2023-07-07T02:47:02.003Z,3.05
2023-07-07T02:49:28.224Z,3.15
2023-07-07T02:51:54.457Z,3.72
2023-07-07T02:54:20.636Z,3.30
2023-07-07T02:56:46.826Z,3.15
2023-07-07T02:59:13.066Z,3.50
2023-07-07T03:01:39.533Z,2.95
2023-07-07T03:04:05.849Z,3.13
2023-07-07T03:06:32.201Z,3.63
2023-07-07T03:08:58.650Z,2.88
2023-07-07T03:11:24.929Z,3.20
2023-07-07T03:13:51.224Z,3.17
2023-07-07T03:16:17.404Z,3.03
2023-07-07T03:18:43.599Z,3.13
2023-07-07T03:21:09.849Z,3.65
2023-07-07T03:23:36.040Z,2.83
2023-07-07T03:26:02.205Z,3.22
2023-07-07T03:28:28.457Z,3.63
2023-07-07T03:30:54.720Z,3.03
2023-07-07T03:33:20.971Z,3.40
2023-07-07T03:35:47.301Z,2.78
2023-07-07T03:38:13.516Z,3.05
2023-07-07T03:40:39.797Z,2.88
2023-07-07T03:43:06.060Z,3.75
2023-07-07T03:45:32.254Z,3.10
2023-07-07T03:47:58.524Z,3.47
2023-07-07T03:50:24.793Z,3.08
2023-07-07T03:52:51.032Z,3.25
2023-07-07T03:55:17.257Z,3.47
2023-07-07T03:57:43.449Z,3.70
2023-07-07T04:00:09.674Z,3.63
2023-07-07T04:02:35.916Z,3.50
2023-07-07T04:05:02.408Z,3.30
2023-07-07T04:07:28.869Z,3.03
2023-07-07T04:09:55.100Z,3.47
2023-07-07T04:12:21.321Z,3.58
2023-07-07T04:14:47.509Z,3.42
2023-07-07T04:17:13.757Z,3.67
2023-07-07T04:19:39.942Z,3.28
2023-07-07T04:22:06.147Z,3.10
2023-07-07T04:24:32.358Z,3.50
2023-07-07T04:26:58.889Z,3.40
2023-07-07T04:29:25.096Z,3.03
2023-07-07T04:31:51.487Z,3.67
2023-07-07T04:34:17.801Z,3.33
2023-07-07T04:36:45.878Z,3.35
2023-07-07T04:39:12.554Z,3.63
2023-07-07T04:41:38.737Z,4.10
2023-07-07T04:44:04.941Z,4.00
2023-07-07T04:46:31.144Z,4.00
2023-07-07T04:48:57.377Z,3.70
2023-07-07T04:51:23.596Z,3.65
2023-07-07T04:53:49.753Z,4.05
2023-07-07T04:56:16.000Z,3.42
2023-07-07T04:58:42.192Z,3.42
2023-07-07T05:01:08.437Z,3.20
2023-07-07T05:03:34.725Z,3.35
2023-07-07T05:06:00.993Z,3.10
2023-07-07T05:08:27.347Z,2.75
2023-07-07T05:10:53.562Z,2.90
2023-07-07T05:13:19.857Z,2.83
2023-07-07T05:15:46.123Z,2.85
2023-07-07T05:18:12.400Z,2.35
2023-07-07T05:20:38.700Z,2.60
2023-07-07T05:23:04.913Z,2.95
2023-07-07T05:25:31.124Z,3.13
2023-07-07T05:27:57.372Z,2.70
2023-07-07T05:30:23.573Z,2.95
2023-07-07T05:32:49.818Z,2.63
2023-07-07T05:35:16.159Z,2.33
2023-07-07T05:37:42.359Z,2.47
2023-07-07T05:40:08.586Z,2.80
2023-07-07T05:42:34.830Z,2.55
2023-07-07T05:45:01.043Z,2.80
2023-07-07T05:47:27.705Z,2.78
2023-07-07T05:49:54.000Z,2.90
2023-07-07T05:52:20.224Z,2.60
2023-07-07T05:54:46.472Z,2.50
2023-07-07T05:57:12.817Z,2.40
2023-07-07T05:59:39.013Z,2.70
2023-07-07T06:02:05.420Z,2.30
2023-07-07T06:04:31.674Z,2.20
2023-07-07T06:06:57.877Z,2.50
2023-07-07T06:09:24.071Z,2.58
2023-07-07T06:11:50.316Z,2.80
2023-07-07T06:14:16.593Z,2.45
2023-07-07T06:16:43.043Z,2.40
2023-07-07T06:19:09.387Z,2.53
2023-07-07T06:21:35.659Z,2.67
2023-07-07T06:24:01.962Z,2.45
2023-07-07T06:26:28.219Z,2.28
2023-07-07T06:28:54.700Z,2.58
2023-07-07T06:31:20.953Z,1.95
2023-07-07T06:33:47.193Z,1.90
2023-07-07T06:36:13.395Z,2.30
2023-07-07T06:38:50.699Z,1.77
2023-07-07T06:41:16.920Z,2.45
2023-07-07T06:43:43.132Z,1.98
2023-07-07T06:46:09.348Z,2.00
2023-07-07T06:48:36.690Z,2.28
2023-07-07T06:51:02.922Z,2.42
2023-07-07T06:53:29.174Z,2.45
2023-07-07T06:55:55.406Z,2.38
2023-07-07T06:58:21.653Z,2.00
2023-07-07T07:00:47.921Z,2.22
2023-07-07T07:03:14.242Z,2.00
2023-07-07T07:05:40.503Z,2.17
2023-07-07T07:08:06.709Z,2.50
2023-07-07T07:10:32.928Z,2.00
2023-07-07T07:12:59.147Z,2.00
2023-07-07T07:15:25.595Z,1.90
2023-07-07T07:17:51.888Z,1.80
2023-07-07T07:20:18.132Z,2.15
2023-07-07T07:22:44.302Z,2.08
2023-07-07T07:25:10.522Z,2.30
2023-07-07T07:27:36.734Z,2.05
2023-07-07T07:30:02.943Z,2.03
2023-07-07T07:32:29.153Z,2.05
2023-07-07T07:34:55.381Z,2.03
2023-07-07T07:37:21.628Z,1.98
2023-07-07T07:39:48.851Z,2.17
2023-07-07T07:42:15.097Z,2.10
2023-07-07T07:44:41.322Z,1.98
2023-07-07T07:47:07.641Z,1.85
2023-07-07T07:49:33.880Z,1.95
2023-07-07T07:52:00.092Z,1.80
2023-07-07T07:54:26.303Z,1.92
2023-07-07T07:56:52.532Z,2.45
2023-07-07T07:59:18.799Z,2.28
2023-07-07T08:01:45.066Z,2.30
2023-07-07T08:04:11.740Z,2.10
2023-07-07T08:06:37.954Z,2.42
2023-07-07T08:09:04.144Z,2.10
2023-07-07T08:11:30.416Z,2.22
2023-07-07T08:13:56.691Z,2.42
2023-07-07T08:16:23.180Z,2.95
2023-07-07T08:18:49.421Z,2.80
2023-07-07T08:21:16.826Z,2.25
2023-07-07T08:23:43.023Z,2.35
2023-07-07T08:31:14.620Z,2.45
2023-07-07T08:33:53.786Z,2.50
2023-07-07T08:36:23.570Z,2.35
2023-07-07T08:38:49.779Z,2.30
2023-07-07T08:41:15.990Z,2.15
2023-07-07T08:43:42.203Z,2.67
2023-07-07T08:46:08.513Z,2.30
2023-07-07T08:48:34.803Z,2.28
2023-07-07T08:51:01.247Z,2.15
2023-07-07T08:53:27.577Z,2.45
2023-07-07T08:55:53.804Z,1.90
2023-07-07T08:58:29.152Z,2.60
2023-07-07T09:00:56.578Z,2.50
2023-07-07T09:03:23.088Z,2.17
2023-07-07T09:05:49.389Z,2.33
2023-07-07T09:08:15.621Z,2.38
2023-07-07T09:10:41.902Z,2.35
2023-07-07T09:13:08.166Z,2.40
2023-07-07T09:15:34.426Z,2.22
2023-07-07T09:18:00.683Z,2.63
2023-07-07T09:20:27.028Z,2.40
2023-07-07T09:22:53.738Z,2.63
2023-07-07T09:25:20.120Z,2.30
2023-07-07T09:27:46.381Z,2.60
2023-07-07T09:30:12.704Z,2.47
2023-07-07T09:32:39.008Z,2.22
2023-07-07T09:35:05.359Z,2.58
2023-07-07T09:37:31.600Z,2.65
2023-07-07T09:40:00.849Z,2.67
2023-07-07T09:42:27.630Z,2.55
2023-07-07T09:44:53.894Z,2.80
2023-07-07T09:47:23.148Z,2.75
2023-07-07T09:49:49.449Z,2.65
2023-07-07T09:52:15.626Z,2.60
2023-07-07T09:54:41.878Z,2.75
2023-07-07T09:57:08.089Z,2.45
2023-07-07T09:59:34.312Z,2.33
2023-07-07T10:02:00.573Z,2.90
2023-07-07T10:04:26.930Z,3.17
2023-07-07T10:06:53.182Z,3.38
2023-07-07T10:09:19.446Z,2.72
2023-07-07T10:14:14.986Z,3.13
2023-07-07T10:16:41.192Z,2.53
2023-07-07T10:19:07.568Z,2.38
2023-07-07T10:21:33.805Z,2.95
2023-07-07T10:24:00.573Z,3.17
2023-07-07T10:26:27.908Z,2.88
2023-07-07T10:28:54.263Z,3.15
2023-07-07T10:31:20.892Z,2.72
2023-07-07T10:33:47.092Z,2.90
2023-07-07T10:39:02.427Z,3.53
2023-07-07T10:41:28.894Z,3.47
2023-07-07T10:43:55.353Z,3.38
2023-07-07T10:46:21.661Z,3.42
2023-07-07T10:48:47.926Z,3.58
2023-07-07T10:51:14.292Z,3.30
2023-07-07T10:53:40.524Z,3.65
2023-07-07T10:56:06.745Z,2.97
2023-07-07T10:58:33.012Z,2.97
2023-07-07T11:00:59.625Z,3.45
2023-07-07T11:03:27.325Z,3.58
2023-07-07T11:06:03.347Z,3.00
2023-07-07T11:08:31.670Z,3.28
2023-07-07T11:10:58.234Z,4.05
2023-07-07T11:13:24.731Z,4.38
2023-07-07T11:15:50.980Z,3.67
2023-07-07T11:18:17.240Z,3.60
2023-07-07T11:20:43.491Z,3.67
2023-07-07T11:23:09.708Z,3.97
2023-07-07T11:25:35.997Z,3.55
2023-07-07T11:28:02.408Z,3.50
2023-07-07T11:30:28.890Z,3.78
2023-07-07T11:32:55.140Z,3.58
2023-07-07T11:35:21.365Z,3.83
2023-07-07T11:37:47.840Z,3.85
2023-07-07T11:40:14.122Z,4.03
2023-07-07T11:42:40.533Z,4.18
2023-07-07T11:45:06.965Z,3.67
2023-07-07T11:47:33.322Z,4.22
2023-07-07T11:49:59.609Z,3.67
2023-07-07T11:52:25.781Z,3.85
2023-07-07T11:54:51.962Z,3.65
2023-07-07T11:57:18.230Z,3.70
2023-07-07T11:59:44.490Z,3.45
2023-07-07T12:02:10.802Z,3.97
2023-07-07T12:04:37.286Z,3.88
2023-07-07T12:07:03.674Z,4.07
2023-07-07T12:09:29.962Z,3.72
2023-07-07T12:11:56.186Z,4.00
2023-07-07T12:14:22.442Z,3.95
2023-07-07T12:16:48.939Z,4.47
2023-07-07T12:19:15.175Z,4.50
2023-07-07T12:21:41.404Z,4.07
2023-07-07T12:24:07.699Z,4.43
2023-07-07T12:26:36.636Z,4.45
2023-07-07T12:29:03.597Z,4.40
2023-07-07T12:31:29.920Z,3.80
2023-07-07T12:33:56.116Z,4.45
2023-07-07T12:36:22.454Z,4.88
2023-07-07T12:38:48.645Z,3.88
2023-07-07T12:41:14.908Z,4.80
2023-07-07T12:43:41.164Z,4.85
2023-07-07T12:46:07.650Z,4.55
2023-07-07T12:48:35.832Z,4.35
2023-07-07T12:51:02.244Z,4.00
2023-07-07T12:53:29.044Z,4.30
2023-07-07T12:55:57.473Z,4.85
2023-07-07T12:58:23.942Z,4.47
2023-07-07T13:00:50.296Z,4.55
2023-07-07T13:03:16.748Z,4.97
2023-07-07T13:05:51.492Z,4.68
2023-07-07T13:08:17.775Z,4.78
2023-07-07T13:10:43.988Z,4.97
2023-07-07T13:13:10.202Z,5.38
2023-07-07T13:15:36.542Z,4.30
2023-07-07T13:18:02.899Z,6.00
2023-07-07T13:20:29.131Z,4.65
2023-07-07T13:22:55.604Z,4.55
2023-07-07T13:25:21.867Z,4.80
2023-07-07T13:27:48.127Z,4.38
2023-07-07T13:30:14.538Z,4.60
2023-07-07T13:32:40.874Z,4.82
2023-07-07T13:35:07.180Z,4.70
2023-07-07T13:37:33.439Z,4.93
2023-07-07T13:39:59.703Z,4.15
2023-07-07T13:42:25.966Z,4.28
2023-07-07T13:44:54.468Z,5.15
2023-07-07T13:47:21.003Z,4.57
2023-07-07T13:49:47.297Z,5.07
2023-07-07T13:55:03.828Z,5.35
2023-07-07T13:57:30.052Z,5.32
2023-07-07T13:59:56.274Z,5.53
2023-07-07T14:02:25.628Z,4.88
2023-07-07T14:04:54.473Z,4.95
2023-07-07T14:07:21.522Z,4.93
2023-07-07T14:09:47.983Z,4.38
2023-07-07T14:12:14.365Z,4.80
2023-07-07T14:14:40.693Z,4.65
2023-07-07T14:17:07.125Z,4.80
2023-07-07T14:19:33.382Z,5.07
2023-07-07T14:21:59.612Z,5.03
2023-07-07T14:24:26.043Z,4.90
2023-07-07T14:26:52.312Z,5.30
2023-07-07T14:29:18.586Z,5.75
2023-07-07T14:31:44.929Z,5.25
2023-07-07T14:34:11.210Z,5.13
2023-07-07T14:36:37.402Z,5.93
2023-07-07T14:39:03.692Z,5.10
2023-07-07T14:41:30.082Z,5.07
2023-07-07T14:43:56.334Z,5.25
2023-07-07T14:46:22.585Z,4.78
2023-07-07T14:48:48.824Z,179.55
2023-07-07T14:51:15.025Z,98.15
2023-07-07T14:53:41.288Z,5.32
2023-07-07T14:56:07.472Z,999.90
2023-07-07T14:58:33.688Z,999.90
2023-07-07T15:01:00.116Z,999.90
2023-07-07T15:03:26.648Z,118.32
2023-07-07T15:05:56.111Z,323.05
2023-07-07T15:08:22.448Z,5.25
2023-07-07T15:10:48.992Z,28.88
2023-07-07T15:13:15.220Z,54.15
2023-07-07T15:15:41.495Z,999.90
2023-07-07T15:18:07.808Z,999.90
2023-07-07T15:20:34.077Z,367.55
2023-07-07T15:23:00.321Z,999.90
2023-07-07T15:25:26.583Z,159.52
2023-07-07T15:27:52.779Z,6.55
2023-07-07T15:30:18.992Z,405.20
2023-07-07T15:32:45.370Z,4.20
2023-07-07T15:35:11.613Z,4.03
2023-07-07T15:37:37.782Z,4.35
2023-07-07T15:40:04.044Z,4.80
2023-07-07T15:42:30.307Z,4.72
2023-07-07T15:44:56.528Z,5.15
2023-07-07T15:47:22.847Z,4.53
2023-07-07T15:49:49.101Z,4.97
2023-07-07T15:52:15.542Z,4.82
2023-07-07T15:54:41.935Z,4.22
2023-07-07T15:57:08.127Z,5.03
2023-07-07T15:59:34.426Z,4.97
2023-07-07T16:02:00.731Z,5.32
2023-07-07T16:04:27.068Z,5.57
2023-07-07T16:06:53.684Z,4.60
2023-07-07T16:09:20.031Z,5.38
2023-07-07T16:11:46.439Z,5.03
2023-07-07T16:14:14.804Z,4.90
2023-07-07T16:16:42.990Z,6.63
2023-07-07T16:19:09.247Z,233.80
2023-07-07T16:21:37.196Z,69.28
2023-07-07T16:24:03.448Z,230.60
2023-07-07T16:26:30.741Z,37.13
2023-07-07T16:28:57.089Z,8.82
2023-07-07T16:31:23.354Z,240.52
2023-07-07T16:33:49.590Z,811.15
2023-07-07T16:36:15.961Z,41.40
2023-07-07T16:38:43.379Z,7.45
2023-07-07T16:41:09.683Z,12.93
2023-07-07T16:43:35.909Z,3.50
2023-07-07T16:46:02.163Z,3.17
2023-07-07T16:48:38.026Z,6.47
2023-07-07T16:51:12.217Z,37.08
2023-07-07T16:53:38.933Z,64.25
2023-07-07T16:56:05.304Z,446.88
2023-07-07T16:58:33.554Z,999.90
2023-07-07T17:01:00.050Z,999.90
2023-07-07T17:03:26.796Z,999.90
2023-07-07T17:05:53.199Z,999.90
2023-07-07T17:08:19.478Z,999.90
2023-07-07T17:10:45.838Z,999.90
2023-07-07T17:13:14.276Z,999.90
2023-07-07T17:15:44.669Z,999.90
2023-07-07T17:18:11.081Z,999.90
2023-07-07T17:20:37.296Z,999.90
2023-07-07T17:23:04.556Z,999.90
2023-07-07T17:25:30.795Z,999.90
2023-07-07T17:27:59.132Z,999.90
2023-07-07T17:30:25.359Z,999.90
2023-07-07T17:32:51.629Z,999.90
2023-07-07T17:35:17.845Z,999.90
2023-07-07T17:37:46.135Z,999.90
2023-07-07T17:40:12.392Z,999.90
2023-07-07T17:42:38.762Z,999.90
2023-07-07T17:45:05.019Z,999.90
2023-07-07T17:47:31.425Z,999.90
2023-07-07T17:49:57.690Z,999.90
2023-07-07T17:52:23.959Z,999.90
2023-07-07T17:54:50.318Z,999.90
2023-07-07T17:57:16.610Z,999.90
2023-07-07T17:59:42.904Z,999.90
2023-07-07T18:02:09.362Z,999.90
2023-07-07T18:04:35.817Z,999.90
2023-07-07T18:07:02.245Z,999.90
2023-07-07T18:09:28.602Z,999.90
2023-07-07T18:11:54.789Z,999.90
2023-07-07T18:14:21.002Z,999.90
2023-07-07T18:16:55.802Z,999.90
2023-07-07T18:20:32.370Z,999.90
2023-07-07T18:22:18.183Z,999.90
2023-07-07T18:24:44.701Z,999.90
2023-07-07T18:27:11.090Z,999.90
2023-07-07T18:29:37.745Z,999.90
2023-07-07T18:32:04.070Z,999.90
2023-07-07T18:34:30.256Z,999.90
2023-07-07T18:36:56.458Z,999.90
2023-07-07T18:39:22.709Z,999.90
2023-07-07T18:41:48.960Z,84.43
2023-07-07T18:44:15.240Z,2.35
2023-07-07T18:46:41.572Z,1.17
2023-07-07T18:49:07.827Z,2.15
2023-07-07T18:51:34.166Z,1.67
2023-07-07T18:54:00.418Z,1.67
2023-07-07T18:56:26.678Z,1.70
2023-07-07T18:58:53.020Z,219.35
2023-07-07T19:01:21.400Z,211.40
2023-07-07T19:03:47.662Z,164.90
2023-07-07T19:06:13.920Z,92.60
2023-07-07T19:08:40.254Z,107.65
2023-07-07T19:11:06.493Z,2.33
2023-07-07T19:13:32.887Z,39.80
2023-07-07T19:15:59.352Z,1.40
2023-07-07T19:18:25.782Z,153.57
2023-07-07T19:20:52.025Z,1.42
2023-07-07T19:23:18.269Z,10.40
2023-07-07T19:25:44.552Z,1.23
2023-07-07T19:28:11.336Z,5.20
2023-07-07T19:30:37.821Z,1.17
2023-07-07T19:33:04.113Z,1.05
2023-07-07T19:35:30.370Z,2.72
2023-07-07T19:37:56.701Z,106.88
2023-07-07T19:40:23.114Z,168.00
2023-07-07T19:42:49.381Z,301.92
2023-07-07T19:45:15.603Z,525.03
2023-07-07T19:47:41.872Z,603.58
2023-07-07T19:50:08.235Z,999.90
2023-07-07T19:52:36.421Z,125.15
2023-07-07T19:55:02.873Z,1.75
2023-07-07T19:57:29.141Z,454.20
2023-07-07T19:59:55.319Z,116.25
2023-07-07T20:02:21.756Z,102.75
2023-07-07T20:04:48.178Z,122.18
2023-07-07T20:07:14.428Z,135.50
2023-07-07T20:09:40.866Z,96.22
2023-07-07T20:12:07.144Z,68.75
2023-07-07T20:14:33.491Z,99.60
2023-07-07T20:16:59.764Z,77.53
2023-07-07T20:19:26.079Z,108.38
2023-07-07T20:21:52.620Z,67.43
2023-07-07T20:24:19.040Z,36.17
2023-07-07T20:26:47.235Z,57.65
2023-07-07T20:29:13.913Z,64.82
2023-07-07T20:31:40.217Z,54.03
2023-07-07T20:34:06.542Z,84.40
2023-07-07T20:36:32.782Z,24.25
2023-07-07T20:38:59.009Z,62.50
2023-07-07T20:41:25.234Z,79.03
2023-07-07T20:43:51.457Z,96.22
2023-07-07T20:46:17.711Z,52.67
2023-07-07T20:48:43.930Z,96.20
2023-07-07T20:51:10.148Z,16.50
2023-07-07T20:53:36.374Z,313.27
2023-07-07T20:56:02.648Z,329.58
2023-07-07T20:58:28.950Z,999.90
2023-07-07T21:00:55.142Z,69.70
2023-07-07T21:03:21.527Z,999.90
2023-07-07T21:05:47.813Z,999.90
2023-07-07T21:08:14.049Z,999.90
2023-07-07T21:10:40.311Z,21.95
2023-07-07T21:13:06.551Z,262.95
2023-07-07T21:15:32.787Z,999.90
2023-07-07T21:17:59.035Z,999.90
2023-07-07T21:20:25.300Z,999.90
2023-07-07T21:22:51.801Z,999.90
2023-07-07T21:25:17.987Z,756.10
2023-07-07T21:27:44.243Z,999.90
2023-07-07T21:30:10.471Z,999.90
2023-07-07T21:32:36.679Z,110.82
2023-07-07T21:35:02.896Z,55.05
2023-07-07T21:37:29.151Z,81.78
2023-07-07T21:39:55.353Z,999.90
2023-07-07T21:42:21.581Z,30.95
2023-07-07T21:44:47.881Z,4.32
2023-07-07T21:47:14.242Z,7.00
2023-07-07T21:49:40.473Z,141.73
2023-07-07T21:52:06.709Z,146.27
2023-07-07T21:54:32.965Z,40.63
2023-07-07T21:56:59.171Z,8.02
2023-07-07T21:59:25.386Z,35.90
2023-07-07T22:01:51.666Z,75.50
2023-07-07T22:04:17.890Z,16.00
2023-07-07T22:06:44.075Z,25.27
2023-07-07T22:09:10.294Z,28.30
2023-07-07T22:11:36.664Z,4.55
2023-07-07T22:14:02.928Z,4.55
2023-07-07T22:16:29.228Z,37.33
2023-07-07T22:18:56.061Z,4.95
2023-07-07T22:21:22.442Z,4.70
2023-07-07T22:23:48.651Z,4.28
2023-07-07T22:26:14.860Z,4.35
2023-07-07T22:28:41.074Z,4.65
2023-07-07T22:31:07.239Z,4.22
2023-07-07T22:33:33.490Z,12.32
2023-07-07T22:35:59.893Z,76.10
2023-07-07T22:38:26.181Z,999.90
2023-07-07T22:40:52.421Z,999.90
2023-07-07T22:43:18.645Z,42.85
2023-07-07T22:45:44.860Z,85.90
2023-07-07T22:48:11.112Z,999.90
2023-07-07T22:50:37.332Z,999.90
2023-07-07T22:53:03.550Z,101.70
2023-07-07T22:55:29.739Z,999.90
2023-07-07T22:57:55.972Z,39.28
2023-07-07T23:00:22.170Z,36.08
2023-07-07T23:02:48.491Z,50.15
2023-07-07T23:05:14.773Z,54.08
2023-07-07T23:07:40.975Z,27.60
2023-07-07T23:10:07.196Z,40.30
2023-07-07T23:12:33.405Z,28.52
2023-07-07T23:14:59.620Z,22.73
2023-07-07T23:17:25.884Z,12.07
2023-07-07T23:19:52.090Z,8.73
2023-07-07T23:22:18.335Z,10.40
2023-07-07T23:24:44.566Z,13.00
2023-07-07T23:27:10.791Z,18.48
2023-07-07T23:29:36.980Z,4.25
2023-07-07T23:32:03.190Z,325.23
2023-07-07T23:34:29.451Z,3.15
2023-07-07T23:36:55.696Z,1.73
2023-07-07T23:39:21.877Z,2.53
2023-07-07T23:41:48.048Z,1.35
2023-07-07T23:44:14.268Z,1.42
2023-07-07T23:46:40.523Z,1.30
2023-07-07T23:49:06.829Z,1.20
2023-07-07T23:51:33.088Z,4.03
2023-07-07T23:53:59.275Z,1.45
2023-07-07T23:56:25.690Z,1.95
2023-07-07T23:58:51.989Z,1.45
